sensor_id;sensor_type;location;lat;lon;timestamp;pressure;altitude;pressure_sealevel;temperature;humidity
68230;BME280;55048;52.220;5.160;2022-09-30T00:01:40;100705.44;;;9.35;75.08
68230;BME280;55048;52.220;5.160;2022-09-30T00:04:09;100731.16;;;9.58;75.21
68230;BME280;55048;52.220;5.160;2022-09-30T00:06:37;100717.66;;;9.48;74.89
68230;BME280;55048;52.220;5.160;2022-09-30T00:09:03;100705.28;;;9.41;75.15
68230;BME280;55048;52.220;5.160;2022-09-30T00:11:31;100722.28;;;9.52;75.15
68230;BME280;55048;52.220;5.160;2022-09-30T00:13:59;100724.34;;;9.62;75.35
68230;BME280;55048;52.220;5.160;2022-09-30T00:16:27;100713.63;;;9.57;75.37
68230;BME280;55048;52.220;5.160;2022-09-30T00:18:54;100730.22;;;9.64;75.55
68230;BME280;55048;52.220;5.160;2022-09-30T00:21:20;100718.69;;;9.58;75.45
68230;BME280;55048;52.220;5.160;2022-09-30T00:23:45;100682.44;;;9.40;75.44
68230;BME280;55048;52.220;5.160;2022-09-30T00:26:14;100702.88;;;9.63;75.83
68230;BME280;55048;52.220;5.160;2022-09-30T00:28:41;100714.06;;;9.65;75.76
68230;BME280;55048;52.220;5.160;2022-09-30T00:31:12;100715.19;;;9.69;75.81
68230;BME280;55048;52.220;5.160;2022-09-30T00:33:39;100722.84;;;9.66;75.94
68230;BME280;55048;52.220;5.160;2022-09-30T00:36:05;100699.75;;;9.55;75.92
68230;BME280;55048;52.220;5.160;2022-09-30T00:38:30;100740.94;;;9.69;76.07
68230;BME280;55048;52.220;5.160;2022-09-30T00:40:56;100696.88;;;9.44;76.00
68230;BME280;55048;52.220;5.160;2022-09-30T00:43:44;100743.25;;;9.77;76.22
68230;BME280;55048;52.220;5.160;2022-09-30T00:46:22;100718.09;;;9.68;76.24
68230;BME280;55048;52.220;5.160;2022-09-30T00:48:51;100727.19;;;9.84;76.17
68230;BME280;55048;52.220;5.160;2022-09-30T00:51:24;100698.59;;;9.62;76.34
68230;BME280;55048;52.220;5.160;2022-09-30T00:53:54;100685.91;;;9.53;76.62
68230;BME280;55048;52.220;5.160;2022-09-30T00:56:23;100708.63;;;9.60;76.47
68230;BME280;55048;52.220;5.160;2022-09-30T01:01:15;100733.09;;;9.86;76.56
68230;BME280;55048;52.220;5.160;2022-09-30T01:03:44;100695.69;;;9.64;76.48
68230;BME280;55048;52.220;5.160;2022-09-30T01:06:14;100726.72;;;9.87;76.61
68230;BME280;55048;52.220;5.160;2022-09-30T01:08:40;100711.97;;;9.79;76.53
68230;BME280;55048;52.220;5.160;2022-09-30T01:11:05;100712.53;;;9.81;76.63
68230;BME280;55048;52.220;5.160;2022-09-30T01:13:33;100730.28;;;9.92;76.47
68230;BME280;55048;52.220;5.160;2022-09-30T01:49:45;100750.84;;;9.97;77.50
68230;BME280;55048;52.220;5.160;2022-09-30T01:52:40;100751.09;;;9.95;77.05
68230;BME280;55048;52.220;5.160;2022-09-30T01:55:25;100737.94;;;9.89;77.19
68230;BME280;55048;52.220;5.160;2022-09-30T01:58:05;100741.50;;;9.94;77.21
68230;BME280;55048;52.220;5.160;2022-09-30T02:00:36;100747.63;;;9.95;77.22
68230;BME280;55048;52.220;5.160;2022-09-30T02:03:28;100705.28;;;9.77;77.50
68230;BME280;55048;52.220;5.160;2022-09-30T02:06:01;100715.44;;;9.80;77.30
68230;BME280;55048;52.220;5.160;2022-09-30T02:08:38;100745.53;;;9.97;77.39
68230;BME280;55048;52.220;5.160;2022-09-30T02:11:13;100744.03;;;10.01;77.32
68230;BME280;55048;52.220;5.160;2022-09-30T02:16:15;100747.03;;;10.05;77.33
68230;BME280;55048;52.220;5.160;2022-09-30T02:18:49;100742.66;;;9.99;77.28
68230;BME280;55048;52.220;5.160;2022-09-30T02:21:23;100742.50;;;10.05;77.57
68230;BME280;55048;52.220;5.160;2022-09-30T02:23:55;100737.19;;;10.05;77.45
68230;BME280;55048;52.220;5.160;2022-09-30T02:26:27;100738.81;;;10.06;77.79
68230;BME280;55048;52.220;5.160;2022-09-30T02:28:59;100725.22;;;9.91;77.65
68230;BME280;55048;52.220;5.160;2022-09-30T02:31:31;100703.06;;;9.74;77.56
68230;BME280;55048;52.220;5.160;2022-09-30T02:34:08;100751.53;;;10.04;77.71
68230;BME280;55048;52.220;5.160;2022-09-30T02:36:46;100713.69;;;9.85;77.69
68230;BME280;55048;52.220;5.160;2022-09-30T02:39:21;100718.66;;;9.82;77.70
68230;BME280;55048;52.220;5.160;2022-09-30T02:41:55;100710.47;;;9.71;77.71
68230;BME280;55048;52.220;5.160;2022-09-30T02:44:23;100735.88;;;9.79;77.72
68230;BME280;55048;52.220;5.160;2022-09-30T02:49:46;100738.63;;;9.84;77.73
68230;BME280;55048;52.220;5.160;2022-09-30T02:52:22;100748.69;;;9.82;77.81
68230;BME280;55048;52.220;5.160;2022-09-30T02:55:03;100756.28;;;9.79;77.70
68230;BME280;55048;52.220;5.160;2022-09-30T02:57:38;100733.56;;;9.59;77.79
68230;BME280;55048;52.220;5.160;2022-09-30T03:00:07;100717.66;;;9.48;77.80
68230;BME280;55048;52.220;5.160;2022-09-30T03:02:33;100754.13;;;9.64;77.69
68230;BME280;55048;52.220;5.160;2022-09-30T03:04:59;100738.66;;;9.49;77.50
68230;BME280;55048;52.220;5.160;2022-09-30T03:07:25;100737.63;;;9.50;77.61
68230;BME280;55048;52.220;5.160;2022-09-30T03:09:55;100754.13;;;9.52;77.67
68230;BME280;55048;52.220;5.160;2022-09-30T03:12:33;100750.69;;;9.52;77.71
68230;BME280;55048;52.220;5.160;2022-09-30T03:20:34;100758.19;;;9.43;77.86
68230;BME280;55048;52.220;5.160;2022-09-30T03:35:16;100768.78;;;9.19;77.77
68230;BME280;55048;52.220;5.160;2022-09-30T03:40:30;100761.00;;;9.06;77.59
68230;BME280;55048;52.220;5.160;2022-09-30T03:43:05;100761.81;;;9.07;77.57
68230;BME280;55048;52.220;5.160;2022-09-30T03:45:37;100757.75;;;9.04;77.62
68230;BME280;55048;52.220;5.160;2022-09-30T03:48:05;100739.75;;;8.83;77.54
68230;BME280;55048;52.220;5.160;2022-09-30T03:50:34;100795.63;;;9.11;77.75
68230;BME280;55048;52.220;5.160;2022-09-30T03:53:01;100785.13;;;9.05;77.83
68230;BME280;55048;52.220;5.160;2022-09-30T03:55:27;100776.09;;;8.94;77.68
68230;BME280;55048;52.220;5.160;2022-09-30T03:57:53;100771.25;;;8.91;77.70
68230;BME280;55048;52.220;5.160;2022-09-30T04:00:18;100771.00;;;8.92;77.80
68230;BME280;55048;52.220;5.160;2022-09-30T04:02:44;100786.13;;;9.04;77.69
68230;BME280;55048;52.220;5.160;2022-09-30T04:05:10;100779.78;;;8.93;77.78
68230;BME280;55048;52.220;5.160;2022-09-30T04:07:36;100736.44;;;8.57;77.65
68230;BME280;55048;52.220;5.160;2022-09-30T04:10:01;100739.19;;;8.62;77.61
68230;BME280;55048;52.220;5.160;2022-09-30T04:12:27;100722.09;;;8.47;77.77
68230;BME280;55048;52.220;5.160;2022-09-30T04:14:52;100689.94;;;8.25;77.80
68230;BME280;55048;52.220;5.160;2022-09-30T04:17:17;100762.84;;;8.64;77.82
68230;BME280;55048;52.220;5.160;2022-09-30T04:19:43;100762.50;;;8.60;78.02
68230;BME280;55048;52.220;5.160;2022-09-30T04:22:09;100780.88;;;8.74;78.01
68230;BME280;55048;52.220;5.160;2022-09-30T04:24:35;100812.50;;;8.87;77.95
68230;BME280;55048;52.220;5.160;2022-09-30T04:27:01;100787.53;;;8.64;77.64
68230;BME280;55048;52.220;5.160;2022-09-30T04:29:27;100817.09;;;8.80;77.60
68230;BME280;55048;52.220;5.160;2022-09-30T04:31:53;100804.75;;;8.74;77.45
68230;BME280;55048;52.220;5.160;2022-09-30T04:34:18;100717.13;;;8.20;77.38
68230;BME280;55048;52.220;5.160;2022-09-30T04:36:44;100795.03;;;8.67;77.36
68230;BME280;55048;52.220;5.160;2022-09-30T04:39:09;100811.38;;;8.64;77.68
68230;BME280;55048;52.220;5.160;2022-09-30T04:41:34;100721.25;;;8.16;77.63
68230;BME280;55048;52.220;5.160;2022-09-30T04:44:01;100796.38;;;8.58;77.74
68230;BME280;55048;52.220;5.160;2022-09-30T04:46:31;100812.94;;;8.72;77.63
68230;BME280;55048;52.220;5.160;2022-09-30T04:48:58;100806.09;;;8.64;77.87
68230;BME280;55048;52.220;5.160;2022-09-30T04:51:24;100821.31;;;8.69;77.64
68230;BME280;55048;52.220;5.160;2022-09-30T04:53:51;100808.59;;;8.59;77.50
68230;BME280;55048;52.220;5.160;2022-09-30T04:56:16;100809.47;;;8.53;77.50
68230;BME280;55048;52.220;5.160;2022-09-30T04:58:42;100822.72;;;8.53;77.67
68230;BME280;55048;52.220;5.160;2022-09-30T05:01:13;100840.19;;;8.61;77.48
68230;BME280;55048;52.220;5.160;2022-09-30T05:03:39;100803.97;;;8.36;77.46
68230;BME280;55048;52.220;5.160;2022-09-30T05:06:05;100814.50;;;8.43;77.35
68230;BME280;55048;52.220;5.160;2022-09-30T05:08:30;100821.19;;;8.46;77.48
68230;BME280;55048;52.220;5.160;2022-09-30T05:11:03;100814.34;;;8.38;77.30
68230;BME280;55048;52.220;5.160;2022-09-30T05:13:31;100817.75;;;8.45;77.34
68230;BME280;55048;52.220;5.160;2022-09-30T05:15:57;100804.00;;;8.30;77.54
68230;BME280;55048;52.220;5.160;2022-09-30T05:18:22;100850.25;;;8.52;77.82
68230;BME280;55048;52.220;5.160;2022-09-30T05:20:54;100814.63;;;8.30;77.58
68230;BME280;55048;52.220;5.160;2022-09-30T05:23:22;100850.72;;;8.49;77.59
68230;BME280;55048;52.220;5.160;2022-09-30T05:25:49;100854.38;;;8.48;77.75
68230;BME280;55048;52.220;5.160;2022-09-30T05:28:14;100812.63;;;8.25;77.86
68230;BME280;55048;52.220;5.160;2022-09-30T05:30:41;100786.59;;;8.04;77.75
68230;BME280;55048;52.220;5.160;2022-09-30T05:33:08;100831.28;;;8.37;77.79
68230;BME280;55048;52.220;5.160;2022-09-30T05:35:33;100836.16;;;8.40;77.68
68230;BME280;55048;52.220;5.160;2022-09-30T05:38:00;100817.78;;;8.20;77.78
68230;BME280;55048;52.220;5.160;2022-09-30T05:40:25;100815.94;;;8.21;77.74
68230;BME280;55048;52.220;5.160;2022-09-30T05:42:51;100848.09;;;8.49;77.78
68230;BME280;55048;52.220;5.160;2022-09-30T05:45:16;100852.56;;;8.49;77.39
68230;BME280;55048;52.220;5.160;2022-09-30T05:47:41;100841.66;;;8.38;77.56
68230;BME280;55048;52.220;5.160;2022-09-30T05:50:07;100807.78;;;8.22;77.70
68230;BME280;55048;52.220;5.160;2022-09-30T05:52:33;100839.63;;;8.34;77.43
68230;BME280;55048;52.220;5.160;2022-09-30T05:54:58;100841.09;;;8.36;77.26
68230;BME280;55048;52.220;5.160;2022-09-30T05:57:27;100845.72;;;8.41;77.50
68230;BME280;55048;52.220;5.160;2022-09-30T05:59:54;100860.28;;;8.50;77.70
68230;BME280;55048;52.220;5.160;2022-09-30T06:02:19;100863.75;;;8.51;77.77
68230;BME280;55048;52.220;5.160;2022-09-30T06:04:45;100844.09;;;8.40;77.98
68230;BME280;55048;52.220;5.160;2022-09-30T06:07:10;100868.81;;;8.52;77.77
68230;BME280;55048;52.220;5.160;2022-09-30T06:09:37;100824.06;;;8.26;77.57
68230;BME280;55048;52.220;5.160;2022-09-30T06:12:02;100829.28;;;8.32;77.58
68230;BME280;55048;52.220;5.160;2022-09-30T06:14:28;100817.88;;;8.32;77.64
68230;BME280;55048;52.220;5.160;2022-09-30T06:16:53;100796.59;;;8.20;77.92
68230;BME280;55048;52.220;5.160;2022-09-30T06:19:19;100842.31;;;8.52;78.06
68230;BME280;55048;52.220;5.160;2022-09-30T06:21:45;100858.16;;;8.59;78.05
68230;BME280;55048;52.220;5.160;2022-09-30T06:24:11;100822.91;;;8.40;78.34
68230;BME280;55048;52.220;5.160;2022-09-30T06:26:38;100855.84;;;8.62;78.36
68230;BME280;55048;52.220;5.160;2022-09-30T06:29:04;100840.63;;;8.58;78.69
68230;BME280;55048;52.220;5.160;2022-09-30T06:31:30;100862.63;;;8.77;79.09
68230;BME280;55048;52.220;5.160;2022-09-30T06:33:56;100835.47;;;8.63;78.65
68230;BME280;55048;52.220;5.160;2022-09-30T06:36:22;100854.44;;;8.78;78.98
68230;BME280;55048;52.220;5.160;2022-09-30T06:38:48;100864.78;;;8.98;79.97
68230;BME280;55048;52.220;5.160;2022-09-30T06:41:19;100870.16;;;9.10;79.17
68230;BME280;55048;52.220;5.160;2022-09-30T06:43:44;100856.22;;;9.14;78.95
68230;BME280;55048;52.220;5.160;2022-09-30T06:46:09;100870.44;;;9.32;78.84
68230;BME280;55048;52.220;5.160;2022-09-30T06:48:36;100877.28;;;9.51;78.88
68230;BME280;55048;52.220;5.160;2022-09-30T06:51:02;100878.72;;;9.65;78.93
68230;BME280;55048;52.220;5.160;2022-09-30T06:53:28;100864.59;;;9.65;78.56
68230;BME280;55048;52.220;5.160;2022-09-30T06:55:57;100863.00;;;9.76;78.91
68230;BME280;55048;52.220;5.160;2022-09-30T06:58:23;100877.19;;;9.93;79.10
68230;BME280;55048;52.220;5.160;2022-09-30T07:00:57;100884.25;;;10.11;78.91
68230;BME280;55048;52.220;5.160;2022-09-30T07:03:25;100890.63;;;10.21;79.89
68230;BME280;55048;52.220;5.160;2022-09-30T07:06:01;100884.97;;;10.18;79.66
68230;BME280;55048;52.220;5.160;2022-09-30T07:08:28;100857.22;;;10.14;79.37
68230;BME280;55048;52.220;5.160;2022-09-30T07:11:07;100877.09;;;10.35;79.97
68230;BME280;55048;52.220;5.160;2022-09-30T07:13:37;100892.78;;;10.60;79.09
68230;BME280;55048;52.220;5.160;2022-09-30T07:16:04;100899.25;;;10.64;79.86
68230;BME280;55048;52.220;5.160;2022-09-30T07:18:29;100874.72;;;10.62;79.57
68230;BME280;55048;52.220;5.160;2022-09-30T07:20:55;100876.56;;;10.73;80.15
68230;BME280;55048;52.220;5.160;2022-09-30T07:23:22;100870.47;;;10.89;79.19
68230;BME280;55048;52.220;5.160;2022-09-30T07:28:16;100885.69;;;11.51;78.15
68230;BME280;55048;52.220;5.160;2022-09-30T07:30:41;100873.50;;;11.55;78.03
68230;BME280;55048;52.220;5.160;2022-09-30T07:33:08;100877.63;;;11.63;78.05
68230;BME280;55048;52.220;5.160;2022-09-30T07:35:33;100895.97;;;11.76;78.17
68230;BME280;55048;52.220;5.160;2022-09-30T07:37:59;100879.34;;;11.86;77.76
68230;BME280;55048;52.220;5.160;2022-09-30T07:40:25;100881.75;;;12.04;77.40
68230;BME280;55048;52.220;5.160;2022-09-30T07:42:55;100862.09;;;12.10;77.24
68230;BME280;55048;52.220;5.160;2022-09-30T07:45:22;100896.00;;;12.54;76.75
68230;BME280;55048;52.220;5.160;2022-09-30T07:47:47;100886.56;;;12.68;76.20
68230;BME280;55048;52.220;5.160;2022-09-30T07:50:12;100854.44;;;12.58;76.18
68230;BME280;55048;52.220;5.160;2022-09-30T07:52:39;100884.09;;;12.83;75.98
68230;BME280;55048;52.220;5.160;2022-09-30T07:55:05;100854.47;;;12.85;75.74
68230;BME280;55048;52.220;5.160;2022-09-30T07:57:30;100861.31;;;12.97;75.68
68230;BME280;55048;52.220;5.160;2022-09-30T07:59:56;100877.06;;;12.99;75.77
68230;BME280;55048;52.220;5.160;2022-09-30T08:02:21;100849.34;;;12.78;76.24
68230;BME280;55048;52.220;5.160;2022-09-30T08:04:49;100872.41;;;12.89;76.27
68230;BME280;55048;52.220;5.160;2022-09-30T08:07:16;100864.66;;;12.88;76.48
68230;BME280;55048;52.220;5.160;2022-09-30T08:09:41;100856.78;;;12.76;76.63
68230;BME280;55048;52.220;5.160;2022-09-30T08:12:07;100852.50;;;12.75;76.64
68230;BME280;55048;52.220;5.160;2022-09-30T08:14:32;100874.28;;;12.89;76.49
68230;BME280;55048;52.220;5.160;2022-09-30T08:16:58;100858.75;;;12.86;76.80
68230;BME280;55048;52.220;5.160;2022-09-30T08:19:25;100852.88;;;12.84;76.86
68230;BME280;55048;52.220;5.160;2022-09-30T08:21:51;100881.16;;;13.07;76.66
68230;BME280;55048;52.220;5.160;2022-09-30T08:24:20;100872.38;;;13.11;76.56
68230;BME280;55048;52.220;5.160;2022-09-30T08:26:46;100864.94;;;13.40;76.32
68230;BME280;55048;52.220;5.160;2022-09-30T08:29:12;100875.94;;;13.81;75.39
68230;BME280;55048;52.220;5.160;2022-09-30T08:31:39;100882.06;;;14.19;74.68
68230;BME280;55048;52.220;5.160;2022-09-30T08:34:05;100869.00;;;14.22;74.39
68230;BME280;55048;52.220;5.160;2022-09-30T08:36:30;100855.00;;;14.10;74.51
68230;BME280;55048;52.220;5.160;2022-09-30T08:38:56;100869.47;;;14.14;74.86
68230;BME280;55048;52.220;5.160;2022-09-30T08:46:58;100882.47;;;13.95;75.75
68230;BME280;55048;52.220;5.160;2022-09-30T08:49:56;100875.56;;;14.04;75.92
68230;BME280;55048;52.220;5.160;2022-09-30T08:52:27;100849.00;;;13.93;75.63
68230;BME280;55048;52.220;5.160;2022-09-30T08:54:56;100880.97;;;14.15;75.62
68230;BME280;55048;52.220;5.160;2022-09-30T08:57:22;100884.19;;;14.17;75.39
68230;BME280;55048;52.220;5.160;2022-09-30T08:59:53;100899.44;;;14.21;75.56
68230;BME280;55048;52.220;5.160;2022-09-30T09:02:55;100886.59;;;14.13;75.02
68230;BME280;55048;52.220;5.160;2022-09-30T09:05:49;100867.53;;;13.99;75.19
68230;BME280;55048;52.220;5.160;2022-09-30T09:22:24;100876.78;;;14.97;73.30
68230;BME280;55048;52.220;5.160;2022-09-30T09:24:52;100866.63;;;15.19;72.46
68230;BME280;55048;52.220;5.160;2022-09-30T09:27:40;100889.72;;;15.56;71.54
68230;BME280;55048;52.220;5.160;2022-09-30T09:30:12;100900.19;;;15.88;70.18
68230;BME280;55048;52.220;5.160;2022-09-30T09:32:38;100870.16;;;15.86;70.13
68230;BME280;55048;52.220;5.160;2022-09-30T09:35:15;100880.06;;;15.80;70.08
68230;BME280;55048;52.220;5.160;2022-09-30T09:37:50;100886.78;;;15.78;70.62
68230;BME280;55048;52.220;5.160;2022-09-30T09:41:13;100881.66;;;15.61;70.25
68230;BME280;55048;52.220;5.160;2022-09-30T09:43:57;100855.16;;;15.49;70.29
68230;BME280;55048;52.220;5.160;2022-09-30T09:46:31;100875.53;;;15.71;69.79
68230;BME280;55048;52.220;5.160;2022-09-30T09:54:45;100888.13;;;15.91;68.79
68230;BME280;55048;52.220;5.160;2022-09-30T09:57:16;100840.94;;;15.74;69.16
68230;BME280;55048;52.220;5.160;2022-09-30T10:02:25;100869.28;;;16.16;67.84
68230;BME280;55048;52.220;5.160;2022-09-30T10:04:51;100875.41;;;16.37;67.34
68230;BME280;55048;52.220;5.160;2022-09-30T10:07:30;100866.78;;;16.45;67.36
68230;BME280;55048;52.220;5.160;2022-09-30T10:10:07;100877.72;;;16.59;67.30
68230;BME280;55048;52.220;5.160;2022-09-30T10:12:33;100865.41;;;16.53;67.32
68230;BME280;55048;52.220;5.160;2022-09-30T10:15:01;100792.84;;;16.08;66.73
68230;BME280;55048;52.220;5.160;2022-09-30T10:17:31;100871.84;;;16.57;66.96
68230;BME280;55048;52.220;5.160;2022-09-30T10:20:00;100815.38;;;16.13;66.76
68230;BME280;55048;52.220;5.160;2022-09-30T10:22:31;100874.81;;;16.55;66.70
68230;BME280;55048;52.220;5.160;2022-09-30T10:30:41;100884.34;;;16.82;64.79
68230;BME280;55048;52.220;5.160;2022-09-30T10:33:19;100862.09;;;16.76;63.20
68230;BME280;55048;52.220;5.160;2022-09-30T10:36:28;100873.63;;;16.77;63.75
68230;BME280;55048;52.220;5.160;2022-09-30T10:38:51;100870.13;;;16.81;62.70
68230;BME280;55048;52.220;5.160;2022-09-30T10:41:24;100850.28;;;16.77;63.64
68230;BME280;55048;52.220;5.160;2022-09-30T10:43:53;100872.97;;;17.00;63.13
68230;BME280;55048;52.220;5.160;2022-09-30T10:46:37;100873.19;;;17.09;62.90
68230;BME280;55048;52.220;5.160;2022-09-30T10:49:54;100849.03;;;17.04;62.46
68230;BME280;55048;52.220;5.160;2022-09-30T10:51:58;100860.44;;;17.30;61.96
68230;BME280;55048;52.220;5.160;2022-09-30T10:57:08;100865.75;;;17.35;59.75
68230;BME280;55048;52.220;5.160;2022-09-30T10:59:39;100858.50;;;17.36;60.15
68230;BME280;55048;52.220;5.160;2022-09-30T11:02:25;100859.03;;;17.32;60.23
68230;BME280;55048;52.220;5.160;2022-09-30T11:05:24;100850.34;;;17.46;60.35
68230;BME280;55048;52.220;5.160;2022-09-30T11:08:16;100861.22;;;17.30;58.80
68230;BME280;55048;52.220;5.160;2022-09-30T11:13:35;100839.03;;;17.15;58.57
68230;BME280;55048;52.220;5.160;2022-09-30T11:16:14;100838.94;;;17.30;57.70
68230;BME280;55048;52.220;5.160;2022-09-30T11:18:47;100839.59;;;17.46;58.46
68230;BME280;55048;52.220;5.160;2022-09-30T11:21:59;100840.63;;;17.50;58.52
68230;BME280;55048;52.220;5.160;2022-09-30T11:24:19;100824.00;;;17.43;58.80
68230;BME280;55048;52.220;5.160;2022-09-30T11:26:58;100845.38;;;17.63;58.70
68230;BME280;55048;52.220;5.160;2022-09-30T11:40:36;100828.00;;;18.03;57.98
68230;BME280;55048;52.220;5.160;2022-09-30T11:43:18;100831.19;;;18.10;57.45
68230;BME280;55048;52.220;5.160;2022-09-30T11:48:37;100826.69;;;17.72;57.67
68230;BME280;55048;52.220;5.160;2022-09-30T11:54:05;100824.91;;;17.62;60.10
68230;BME280;55048;52.220;5.160;2022-09-30T11:59:42;100803.97;;;17.59;60.84
68230;BME280;55048;52.220;5.160;2022-09-30T12:02:41;100801.69;;;17.71;59.46
68230;BME280;55048;52.220;5.160;2022-09-30T12:05:29;100810.69;;;17.91;57.60
68230;BME280;55048;52.220;5.160;2022-09-30T12:08:10;100806.06;;;17.96;56.68
68230;BME280;55048;52.220;5.160;2022-09-30T12:10:51;100799.22;;;18.04;57.15
68230;BME280;55048;52.220;5.160;2022-09-30T12:13:23;100790.56;;;18.07;56.33
68230;BME280;55048;52.220;5.160;2022-09-30T12:15:52;100767.00;;;17.99;56.54
68230;BME280;55048;52.220;5.160;2022-09-30T12:18:22;100781.03;;;17.96;56.94
68230;BME280;55048;52.220;5.160;2022-09-30T12:21:00;100795.44;;;17.81;57.18
68230;BME280;55048;52.220;5.160;2022-09-30T12:23:46;100776.28;;;17.88;57.58
68230;BME280;55048;52.220;5.160;2022-09-30T12:26:13;100787.81;;;18.12;57.58
68230;BME280;55048;52.220;5.160;2022-09-30T12:37:08;100780.44;;;18.42;57.22
68230;BME280;55048;52.220;5.160;2022-09-30T12:39:54;100778.56;;;18.42;57.21
68230;BME280;55048;52.220;5.160;2022-09-30T12:42:41;100791.53;;;18.59;56.32
68230;BME280;55048;52.220;5.160;2022-09-30T12:47:52;100790.88;;;18.67;54.99
68230;BME280;55048;52.220;5.160;2022-09-30T12:50:25;100771.28;;;18.61;55.65
68230;BME280;55048;52.220;5.160;2022-09-30T12:52:54;100774.78;;;18.62;55.91
68230;BME280;55048;52.220;5.160;2022-09-30T12:55:26;100788.00;;;18.40;53.91
68230;BME280;55048;52.220;5.160;2022-09-30T12:57:54;100775.41;;;18.16;54.59
68230;BME280;55048;52.220;5.160;2022-09-30T13:00:26;100778.66;;;18.13;55.55
68230;BME280;55048;52.220;5.160;2022-09-30T13:03:03;100771.59;;;18.17;55.67
68230;BME280;55048;52.220;5.160;2022-09-30T13:13:18;100754.47;;;17.89;56.23
68230;BME280;55048;52.220;5.160;2022-09-30T13:15:49;100748.22;;;17.94;56.21
68230;BME280;55048;52.220;5.160;2022-09-30T13:20:54;100725.59;;;17.95;57.05
68230;BME280;55048;52.220;5.160;2022-09-30T13:23:46;100703.56;;;17.93;57.67
68230;BME280;55048;52.220;5.160;2022-09-30T13:26:35;100726.94;;;18.16;57.89
68230;BME280;55048;52.220;5.160;2022-09-30T13:31:30;100732.41;;;18.30;56.95
68230;BME280;55048;52.220;5.160;2022-09-30T13:36:40;100725.91;;;18.12;56.83
68230;BME280;55048;52.220;5.160;2022-09-30T13:39:20;100724.41;;;18.25;56.63
68230;BME280;55048;52.220;5.160;2022-09-30T13:42:11;100726.31;;;18.24;56.13
68230;BME280;55048;52.220;5.160;2022-09-30T13:48:04;100726.44;;;18.14;56.34
68230;BME280;55048;52.220;5.160;2022-09-30T13:50:52;100722.91;;;17.95;55.57
68230;BME280;55048;52.220;5.160;2022-09-30T13:56:05;100708.28;;;17.82;56.08
68230;BME280;55048;52.220;5.160;2022-09-30T14:09:36;100723.72;;;17.95;54.70
68230;BME280;55048;52.220;5.160;2022-09-30T14:12:12;100726.47;;;17.90;54.34
68230;BME280;55048;52.220;5.160;2022-09-30T14:15:06;100710.38;;;17.85;54.82
68230;BME280;55048;52.220;5.160;2022-09-30T14:22:58;100702.78;;;17.92;55.45
68230;BME280;55048;52.220;5.160;2022-09-30T14:25:24;100710.72;;;18.02;54.66
68230;BME280;55048;52.220;5.160;2022-09-30T14:28:05;100697.16;;;17.89;55.11
68230;BME280;55048;52.220;5.160;2022-09-30T14:30:38;100700.38;;;17.91;55.61
68230;BME280;55048;52.220;5.160;2022-09-30T14:33:10;100663.13;;;17.55;55.54
68230;BME280;55048;52.220;5.160;2022-09-30T14:35:36;100687.13;;;17.70;55.47
68230;BME280;55048;52.220;5.160;2022-09-30T14:38:18;100689.94;;;17.60;55.82
68230;BME280;55048;52.220;5.160;2022-09-30T14:40:52;100687.91;;;17.76;55.59
68230;BME280;55048;52.220;5.160;2022-09-30T14:43:25;100683.63;;;17.75;56.09
68230;BME280;55048;52.220;5.160;2022-09-30T14:45:58;100670.25;;;17.65;56.01
68230;BME280;55048;52.220;5.160;2022-09-30T14:48:30;100684.69;;;17.74;56.09
68230;BME280;55048;52.220;5.160;2022-09-30T14:51:01;100683.06;;;17.73;56.35
68230;BME280;55048;52.220;5.160;2022-09-30T14:53:31;100692.00;;;17.68;54.62
68230;BME280;55048;52.220;5.160;2022-09-30T14:55:58;100661.00;;;17.52;53.90
68230;BME280;55048;52.220;5.160;2022-09-30T14:58:30;100660.06;;;17.38;53.06
68230;BME280;55048;52.220;5.160;2022-09-30T15:01:14;100678.97;;;17.56;52.33
68230;BME280;55048;52.220;5.160;2022-09-30T15:03:53;100678.69;;;17.58;52.68
68230;BME280;55048;52.220;5.160;2022-09-30T15:06:21;100686.91;;;17.67;52.29
68230;BME280;55048;52.220;5.160;2022-09-30T15:08:48;100672.78;;;17.56;52.39
68230;BME280;55048;52.220;5.160;2022-09-30T15:11:23;100670.94;;;17.51;52.30
68230;BME280;55048;52.220;5.160;2022-09-30T15:14:22;100683.53;;;17.56;52.60
68230;BME280;55048;52.220;5.160;2022-09-30T15:21:46;100680.63;;;17.52;52.40
68230;BME280;55048;52.220;5.160;2022-09-30T15:24:14;100688.59;;;17.63;52.31
68230;BME280;55048;52.220;5.160;2022-09-30T15:26:40;100666.50;;;17.42;52.28
68230;BME280;55048;52.220;5.160;2022-09-30T15:29:12;100684.44;;;17.46;52.79
68230;BME280;55048;52.220;5.160;2022-09-30T15:31:43;100660.56;;;17.45;53.14
68230;BME280;55048;52.220;5.160;2022-09-30T15:34:15;100660.31;;;17.41;53.09
68230;BME280;55048;52.220;5.160;2022-09-30T15:36:44;100676.78;;;17.58;53.72
68230;BME280;55048;52.220;5.160;2022-09-30T15:39:23;100661.28;;;17.50;53.96
68230;BME280;55048;52.220;5.160;2022-09-30T15:41:50;100696.28;;;17.69;54.17
68230;BME280;55048;52.220;5.160;2022-09-30T15:44:19;100690.75;;;17.60;54.60
68230;BME280;55048;52.220;5.160;2022-09-30T15:47:06;100676.25;;;17.56;53.96
68230;BME280;55048;52.220;5.160;2022-09-30T15:52:37;100695.25;;;17.41;53.69
68230;BME280;55048;52.220;5.160;2022-09-30T15:55:42;100697.78;;;17.32;54.38
68230;BME280;55048;52.220;5.160;2022-09-30T16:03:35;100659.31;;;17.08;55.33
68230;BME280;55048;52.220;5.160;2022-09-30T16:06:12;100678.31;;;17.17;55.87
68230;BME280;55048;52.220;5.160;2022-09-30T16:08:49;100669.59;;;17.01;56.00
68230;BME280;55048;52.220;5.160;2022-09-30T16:11:25;100674.16;;;17.00;56.59
68230;BME280;55048;52.220;5.160;2022-09-30T16:13:52;100665.66;;;16.93;56.44
68230;BME280;55048;52.220;5.160;2022-09-30T16:16:39;100682.81;;;16.92;56.59
68230;BME280;55048;52.220;5.160;2022-09-30T16:19:14;100664.69;;;16.79;56.87
68230;BME280;55048;52.220;5.160;2022-09-30T16:21:47;100668.97;;;16.80;57.02
68230;BME280;55048;52.220;5.160;2022-09-30T16:27:19;100659.91;;;16.71;57.41